Ce_breeze — ELSQ7 — position and weather

sailwx.info

Track history (hours):
 
Tides and Currents Weather Stations Pressure Air Temp Water Temp Dewpoint Dewpoint Depression Visibility Wind Speed Wind Dir Waves Ship Positions

Ce_breeze

Last reported at 2017-Jun-21 21:19 UTC. Time now 2017-Jun-25 00:17 UTC.
Position N 37°33' E 023°46'.

Length 240 m; draft 8 m.

Type: Tanker. MMSI: 636010400.

Date/timePositionNaut miles runAvg speedWind from/ knotsBaromVisibWave heightAir tempDewpointWater temp
2017-Jun-21 21:19N 37°33' E 023°46'3 9.3
2017-Jun-21 21:00N 37°36' E 023°45'5 9.6
2017-Jun-21 20:30N 37°40' E 023°42'5 9.6
2017-Jun-21 20:00N 37°45' E 023°39'5 9.4
2017-Jun-21 19:30N 37°49' E 023°37'4 8.8
2017-Jun-21 19:00N 37°51' E 023°32'2 4.5
2017-Jun-21 18:30N 37°52' E 023°30'0 0.1
2017-Jun-21 18:00N 37°52' E 023°30'0 0.1
2017-Jun-21 17:30N 37°52' E 023°30'0 0.1
2017-Jun-21 17:01N 37°52' E 023°30'0 0.0
2017-Jun-21 16:30N 37°52' E 023°30'0 0.0
2017-Jun-21 16:01N 37°52' E 023°30'0 0.0
2017-Jun-21 15:29N 37°52' E 023°30'0 0.1
2017-Jun-21 14:59N 37°52' E 023°30'0 0.1
2017-Jun-21 13:59N 37°52' E 023°30'0 0.1
2017-Jun-21 13:29N 37°52' E 023°30'0 0.3
2017-Jun-21 12:58N 37°52' E 023°30'0 0.2
2017-Jun-21 12:28N 37°52' E 023°30'0 0.0
2017-Jun-21 11:58N 37°52' E 023°30'0 0.0
2017-Jun-21 11:28N 37°52' E 023°30'0 0.0
2017-Jun-21 10:59N 37°52' E 023°30'0 0.0
2017-Jun-21 10:29N 37°52' E 023°30'0 0.0
2017-Jun-21 09:59N 37°52' E 023°30'0 0.0
2017-Jun-21 09:29N 37°52' E 023°30'0 0.0
2017-Jun-21 08:59N 37°52' E 023°30'0 0.1
2017-Jun-21 08:29N 37°52' E 023°30'0 0.1
2017-Jun-21 07:59N 37°52' E 023°30'0 0.3
2017-Jun-21 07:29N 37°52' E 023°30'0 0.5
2017-Jun-21 06:59N 37°52' E 023°30'0 0.0
2017-Jun-21 06:29N 37°52' E 023°30'0 0.0
2017-Jun-21 05:59N 37°52' E 023°30'0 0.1
2017-Jun-21 05:29N 37°52' E 023°30'0 0.1
2017-Jun-21 04:59N 37°52' E 023°30'0 0.0
2017-Jun-21 04:29N 37°52' E 023°30'0 0.0
2017-Jun-21 03:59N 37°52' E 023°30'0 0.0
2017-Jun-21 03:29N 37°52' E 023°30'0 0.0
2017-Jun-21 02:59N 37°52' E 023°30'0 0.0
2017-Jun-21 02:29N 37°52' E 023°30'0 0.0
2017-Jun-21 01:59N 37°52' E 023°30'0 0.0
2017-Jun-21 01:29N 37°52' E 023°29'0 0.0
2017-Jun-21 00:59N 37°52' E 023°29'0 0.0
2017-Jun-21 00:29N 37°52' E 023°29'0 0.0
2017-Jun-20 23:59N 37°52' E 023°30'0 0.0
2017-Jun-20 23:29N 37°52' E 023°29'0 0.0
2017-Jun-20 22:58N 37°52' E 023°29'0 0.0
2017-Jun-20 22:28N 37°52' E 023°29'0 0.1
2017-Jun-20 22:00N 37°52' E 023°29'0 0.1
2017-Jun-20 21:30N 37°52' E 023°29'0 0.0
2017-Jun-20 21:00N 37°52' E 023°29'0 0.0
2017-Jun-20 20:30N 37°52' E 023°29'0 0.1
2017-Jun-20 20:00N 37°52' E 023°29'0 0.0
2017-Jun-20 19:30N 37°52' E 023°29'0 0.0
2017-Jun-20 19:00N 37°52' E 023°29'0 0.1
2017-Jun-20 18:29N 37°52' E 023°29'0 0.0
2017-Jun-20 17:59N 37°52' E 023°29'0 0.0
2017-Jun-20 17:29N 37°52' E 023°29'0 0.0
2017-Jun-20 16:59N 37°52' E 023°29'0 0.0
2017-Jun-20 16:29N 37°52' E 023°29'0 0.2
2017-Jun-20 15:59N 37°52' E 023°29'0 0.0
2017-Jun-20 15:29N 37°52' E 023°29'0 0.0
2017-Jun-20 14:59N 37°52' E 023°29'0 0.0
2017-Jun-20 14:29N 37°52' E 023°29'0 0.2
2017-Jun-20 13:29N 37°52' E 023°30'0 0.1
2017-Jun-20 12:59N 37°52' E 023°30'0 0.0
2017-Jun-20 12:29N 37°52' E 023°30'0 0.0
2017-Jun-20 11:56N 37°52' E 023°30'0 0.1
2017-Jun-20 11:29N 37°52' E 023°30'0 0.2
2017-Jun-20 10:59N 37°52' E 023°30'0 0.2
2017-Jun-20 10:29N 37°52' E 023°29'0 0.0
2017-Jun-20 10:01N 37°52' E 023°29'0 0.1
2017-Jun-20 09:30N 37°52' E 023°29'0 0.1
2017-Jun-20 09:00N 37°52' E 023°29'0 0.0
2017-Jun-20 08:30N 37°52' E 023°29'0 0.0
2017-Jun-20 08:00N 37°52' E 023°29'0 0.0
2017-Jun-20 07:30N 37°52' E 023°29'0 0.1
2017-Jun-20 07:00N 37°52' E 023°29'0 0.0
2017-Jun-20 06:27N 37°52' E 023°29'0 0.0
2017-Jun-20 06:00N 37°52' E 023°29'0 0.0
2017-Jun-20 05:30N 37°52' E 023°29'0 0.0
2017-Jun-20 05:00N 37°52' E 023°29'0 0.0
2017-Jun-20 04:30N 37°52' E 023°29'0 0.0
2017-Jun-20 03:58N 37°52' E 023°29'0 0.0
2017-Jun-20 03:28N 37°52' E 023°29'0 0.0
2017-Jun-20 02:58N 37°52' E 023°29'0 0.0
2017-Jun-20 02:28N 37°52' E 023°29'0 0.0
2017-Jun-20 01:58N 37°52' E 023°29'0 0.0
2017-Jun-20 01:28N 37°52' E 023°29'0 0.1
2017-Jun-20 00:59N 37°52' E 023°29'0 0.0
2017-Jun-20 00:29N 37°52' E 023°29'0 0.0
2017-Jun-19 23:59N 37°52' E 023°29'0 0.1
2017-Jun-19 23:29N 37°52' E 023°29'0 0.0
2017-Jun-19 22:59N 37°52' E 023°29'0 0.0
2017-Jun-19 22:29N 37°52' E 023°29'0 0.1
2017-Jun-19 21:59N 37°52' E 023°29'0 0.0
2017-Jun-19 21:29N 37°52' E 023°29'0 0.1
2017-Jun-19 20:59N 37°52' E 023°29'0 0.0
2017-Jun-19 20:29N 37°52' E 023°29'0 0.1
2017-Jun-19 19:59N 37°52' E 023°29'0 0.0
2017-Jun-19 19:28N 37°52' E 023°29'0 0.0
2017-Jun-19 18:58N 37°52' E 023°29'0 0.0
2017-Jun-19 18:28N 37°52' E 023°29'0 0.0
2017-Jun-19 17:58N 37°52' E 023°29'0 0.1
2017-Jun-19 17:28N 37°52' E 023°29'0 0.0
2017-Jun-19 16:58N 37°52' E 023°29'0 0.1
2017-Jun-19 16:31N 37°52' E 023°29'0 0.0
2017-Jun-19 16:01N 37°52' E 023°29'0 0.0
2017-Jun-19 15:31N 37°52' E 023°29'0 0.1
2017-Jun-19 15:00N 37°52' E 023°29'0 0.0
2017-Jun-19 14:01N 37°52' E 023°30'0 0.0
2017-Jun-19 13:31N 37°52' E 023°30'0 0.1
2017-Jun-19 12:58N 37°52' E 023°29'0 0.0
2017-Jun-19 12:28N 37°52' E 023°29'0 0.1
2017-Jun-19 11:58N 37°52' E 023°29'0 0.0
2017-Jun-19 11:28N 37°52' E 023°29'0 0.0
2017-Jun-19 10:58N 37°52' E 023°29'0 0.0
2017-Jun-19 10:31N 37°52' E 023°29'0 0.0
2017-Jun-19 10:01N 37°52' E 023°29'0 0.1
2017-Jun-19 09:31N 37°52' E 023°29'0 0.1
2017-Jun-19 09:00N 37°52' E 023°29'0 0.0
2017-Jun-19 08:31N 37°52' E 023°29'0 0.0
2017-Jun-19 08:00N 37°52' E 023°29'0 0.0
2017-Jun-19 07:30N 37°52' E 023°29'0 0.0
2017-Jun-19 07:01N 37°52' E 023°29'0 0.0
2017-Jun-19 06:28N 37°52' E 023°29'0 0.0
2017-Jun-19 05:58N 37°52' E 023°29'0 0.0
2017-Jun-19 05:28N 37°52' E 023°29'0 0.0
2017-Jun-19 04:58N 37°52' E 023°29'0 0.0
2017-Jun-19 04:28N 37°52' E 023°29'0 0.0
2017-Jun-19 03:58N 37°52' E 023°29'0 0.0
2017-Jun-19 03:29N 37°52' E 023°29'0 0.0
2017-Jun-19 02:59N 37°52' E 023°30'0 0.0
2017-Jun-19 02:29N 37°52' E 023°30'0 0.0
2017-Jun-19 01:59N 37°52' E 023°30'0 0.0
2017-Jun-19 01:29N 37°52' E 023°30'0 0.0
2017-Jun-19 00:59N 37°52' E 023°30'0 0.0
2017-Jun-19 00:29N 37°52' E 023°30'0 0.0
2017-Jun-18 23:59N 37°52' E 023°30'0 0.0
2017-Jun-18 23:29N 37°52' E 023°30'0 0.0
2017-Jun-18 22:59N 37°52' E 023°30'0 0.0
2017-Jun-18 22:31N 37°52' E 023°30'0 0.0
2017-Jun-18 22:00N 37°52' E 023°30'0 0.0
2017-Jun-18 21:30N 37°52' E 023°30'0 0.0
2017-Jun-18 21:00N 37°52' E 023°30'0 0.0
2017-Jun-18 20:30N 37°52' E 023°30'0 0.0
2017-Jun-18 20:00N 37°52' E 023°30'0 0.0
2017-Jun-18 19:30N 37°52' E 023°30'0 0.0
2017-Jun-18 19:00N 37°52' E 023°30'0 0.1
2017-Jun-18 18:30N 37°52' E 023°30'0 0.1
2017-Jun-18 18:00N 37°52' E 023°30'0 0.0
2017-Jun-18 17:30N 37°52' E 023°30'0 0.0
2017-Jun-18 17:00N 37°52' E 023°30'0 0.1
2017-Jun-18 16:30N 37°52' E 023°30'0 0.1
2017-Jun-18 16:00N 37°52' E 023°30'0 0.2
2017-Jun-18 15:30N 37°52' E 023°29'0 0.0
2017-Jun-18 15:00N 37°52' E 023°29'0 0.0
2017-Jun-18 14:30N 37°52' E 023°29'0 0.0
2017-Jun-18 14:00N 37°52' E 023°29'0 0.3
2017-Jun-18 13:30N 37°52' E 023°29'2 3.4
2017-Jun-18 13:00N 37°52' E 023°27'3 6.6
2017-Jun-18 12:30N 37°52' E 023°23'4 8.8
2017-Jun-18 12:00N 37°57' E 023°22'2 3.4
2017-Jun-18 11:30N 37°58' E 023°23'0 0.0
2017-Jun-18 10:59N 37°58' E 023°23'0 0.0
2017-Jun-18 10:29N 37°58' E 023°23'0 0.0
2017-Jun-18 10:00N 37°58' E 023°23'0 0.0
2017-Jun-18 09:30N 37°58' E 023°23'0 0.0
2017-Jun-18 08:59N 37°58' E 023°23'0 0.0
2017-Jun-18 08:29N 37°58' E 023°23'0 0.0
2017-Jun-18 08:00N 37°58' E 023°23'0 0.0
2017-Jun-18 07:31N 37°58' E 023°23'0 0.0
2017-Jun-18 07:01N 37°58' E 023°23'0 0.0
2017-Jun-18 06:31N 37°58' E 023°23'0 0.0
2017-Jun-18 06:00N 37°58' E 023°23'0 0.0
2017-Jun-18 05:31N 37°58' E 023°23'0 0.0
2017-Jun-18 05:01N 37°58' E 023°23'0 0.0
2017-Jun-18 04:30N 37°58' E 023°23'0 0.0
2017-Jun-18 04:01N 37°58' E 023°23'0 0.0
2017-Jun-18 03:29N 37°58' E 023°23'0 0.0
2017-Jun-18 02:59N 37°58' E 023°23'0 0.0
2017-Jun-18 02:29N 37°58' E 023°23'0 0.0
2017-Jun-18 02:00N 37°58' E 023°23'0 0.0
2017-Jun-18 01:29N 37°58' E 023°23'0 0.0
2017-Jun-18 00:58N 37°58' E 023°23'0 0.0
2017-Jun-18 00:31N 37°58' E 023°23'0 0.0
2017-Jun-17 23:58N 37°58' E 023°23'0 0.0
2017-Jun-17 23:30N 37°58' E 023°23'0 0.0
2017-Jun-17 23:00N 37°58' E 023°23'0 0.0
2017-Jun-17 22:30N 37°58' E 023°23'0 0.0
2017-Jun-17 22:00N 37°58' E 023°23'0 0.0
2017-Jun-17 21:30N 37°58' E 023°23'0 0.0
2017-Jun-17 21:01N 37°58' E 023°23'0 0.0
2017-Jun-17 20:30N 37°58' E 023°23'0 0.0
2017-Jun-17 19:59N 37°58' E 023°23'0 0.0
2017-Jun-17 19:29N 37°58' E 023°23'0 0.0
2017-Jun-17 18:59N 37°58' E 023°23'0 0.0
2017-Jun-17 18:31N 37°58' E 023°23'0 0.0
2017-Jun-17 17:58N 37°58' E 023°23'0 0.0
2017-Jun-17 17:28N 37°58' E 023°23'0 0.0
2017-Jun-17 16:58N 37°58' E 023°23'0 0.0
2017-Jun-17 16:28N 37°58' E 023°23'0 0.0
2017-Jun-17 15:59N 37°58' E 023°23'0 0.0
2017-Jun-17 15:30N 37°58' E 023°23'0 0.0
2017-Jun-17 15:00N 37°58' E 023°23'0 0.0
2017-Jun-17 14:00N 37°58' E 023°23'0 0.0
2017-Jun-17 13:28N 37°58' E 023°23'0 0.0
2017-Jun-17 12:55N 37°58' E 023°23'0 0.0
2017-Jun-17 12:28N 37°58' E 023°23'0 0.0
2017-Jun-17 11:55N 37°58' E 023°23'0 0.0
2017-Jun-17 11:28N 37°58' E 023°23'0 0.0
2017-Jun-17 10:55N 37°58' E 023°23'0 0.0
2017-Jun-17 10:28N 37°58' E 023°23'0 0.0
2017-Jun-17 09:58N 37°58' E 023°23'0 0.0
2017-Jun-17 09:28N 37°58' E 023°23'0 0.0
2017-Jun-17 08:58N 37°58' E 023°23'0 0.0
2017-Jun-17 08:28N 37°58' E 023°23'0 0.0
2017-Jun-17 07:58N 37°58' E 023°23'0 0.0
2017-Jun-17 07:28N 37°58' E 023°23'0 0.0
2017-Jun-17 07:00N 37°58' E 023°23'1 1.1
2017-Jun-17 06:30N 37°58' E 023°23'2 3.6
2017-Jun-17 06:00N 37°56' E 023°22'0 0.6
2017-Jun-17 05:30N 37°56' E 023°22'0 0.1
2017-Jun-17 05:00N 37°56' E 023°22'0 0.2
2017-Jun-17 04:30N 37°56' E 023°22'0 0.2
2017-Jun-17 04:00N 37°56' E 023°22'0 0.2
2017-Jun-17 03:31N 37°56' E 023°22'0 0.4
2017-Jun-17 03:00N 37°56' E 023°21'0 0.4
2017-Jun-17 02:30N 37°56' E 023°21'0 0.4
2017-Jun-17 02:00N 37°56' E 023°21'2 3.5
2017-Jun-17 01:30N 37°54' E 023°22'2 4.8
2017-Jun-17 01:00N 37°52' E 023°24'4 8.7
2017-Jun-17 00:30N 37°50' E 023°29'5 9.3
2017-Jun-17 00:00N 37°50' E 023°35'4 7.9
2017-Jun-16 23:30N 37°49' E 023°40'5 9.8
2017-Jun-16 23:00N 37°45' E 023°42'611.3
2017-Jun-16 22:31N 37°40' E 023°46'611.9
2017-Jun-16 22:00N 37°34' E 023°48'  
2017-Jun-12 18:37N 37°35' E 023°45'212.4
2017-Jun-12 18:29N 37°36' E 023°44'612.7
2017-Jun-12 18:01N 37°42' E 023°41'612.8
2017-Jun-12 17:31N 37°48' E 023°37'5 9.8
2017-Jun-12 17:00N 37°50' E 023°32'3 6.0
2017-Jun-12 16:31N 37°52' E 023°30'0 0.7
2017-Jun-12 16:01N 37°52' E 023°30'0 0.0
2017-Jun-12 15:31N 37°52' E 023°30'0 0.0
2017-Jun-12 15:01N 37°52' E 023°30'0 0.1
2017-Jun-12 14:29N 37°52' E 023°30'0 0.0
2017-Jun-12 13:28N 37°52' E 023°30'0 0.0
2017-Jun-12 12:58N 37°52' E 023°30'0 0.0
2017-Jun-12 12:28N 37°52' E 023°30'0 0.0
2017-Jun-12 11:58N 37°52' E 023°30'0 0.1
2017-Jun-12 11:31N 37°52' E 023°30'0 0.0
2017-Jun-12 11:01N 37°52' E 023°30'0 0.1
2017-Jun-12 10:31N 37°52' E 023°30'0 0.0
2017-Jun-12 10:01N 37°52' E 023°30'0 0.0
2017-Jun-12 09:31N 37°52' E 023°30'0 0.1
2017-Jun-12 08:49N 37°52' E 023°30'0 0.0
2017-Jun-12 08:31N 37°52' E 023°30'0 0.0
2017-Jun-12 08:01N 37°52' E 023°30'0 0.0
2017-Jun-12 07:31N 37°52' E 023°30'0 0.0
2017-Jun-12 07:01N 37°52' E 023°30'0 0.0
2017-Jun-12 06:30N 37°52' E 023°30'0 0.0
2017-Jun-12 06:00N 37°52' E 023°30'0 0.0
2017-Jun-12 05:30N 37°52' E 023°30'0 0.0
2017-Jun-12 05:00N 37°52' E 023°30'0 0.0
2017-Jun-12 04:30N 37°52' E 023°30'0 0.0
2017-Jun-12 04:00N 37°52' E 023°30'0 0.0
2017-Jun-12 03:30N 37°52' E 023°30'0 0.0
2017-Jun-12 03:00N 37°52' E 023°30'0 0.0
2017-Jun-12 02:31N 37°52' E 023°30'0 0.0
2017-Jun-12 01:59N 37°52' E 023°30'0 0.0
2017-Jun-12 01:29N 37°52' E 023°30'0 0.1
2017-Jun-12 00:59N 37°52' E 023°30'0 0.0
2017-Jun-12 00:29N 37°52' E 023°30'0 0.0
2017-Jun-11 23:59N 37°52' E 023°30'0 0.1
2017-Jun-11 23:31N 37°52' E 023°30'0 0.0
2017-Jun-11 22:58N 37°52' E 023°30'0 0.1
2017-Jun-11 22:28N 37°52' E 023°30'0 0.1
2017-Jun-11 21:58N 37°52' E 023°30'0 0.1
2017-Jun-11 21:28N 37°52' E 023°30'  
Track history (hours):
 
Tides and Currents Weather Stations Pressure Air Temp Water Temp Dewpoint Dewpoint Depression Visibility Wind Speed Wind Dir Waves Ship Positions

Ce_breeze

Last reported at 2017-Jun-21 21:19 UTC. Time now 2017-Jun-25 00:17 UTC.
Position N 37°33' E 023°46'.

Length 240 m; draft 8 m.

Type: Tanker. MMSI: 636010400.

Date/timePositionNaut miles runAvg speedWind from/ knotsBaromVisibWave heightAir tempDewpointWater temp
2017-Jun-21 21:19N 37°33' E 023°46'3 9.3
2017-Jun-21 21:00N 37°36' E 023°45'5 9.6
2017-Jun-21 20:30N 37°40' E 023°42'5 9.6
2017-Jun-21 20:00N 37°45' E 023°39'5 9.4
2017-Jun-21 19:30N 37°49' E 023°37'4 8.8
2017-Jun-21 19:00N 37°51' E 023°32'2 4.5
2017-Jun-21 18:30N 37°52' E 023°30'0 0.1
2017-Jun-21 18:00N 37°52' E 023°30'0 0.1
2017-Jun-21 17:30N 37°52' E 023°30'0 0.1
2017-Jun-21 17:01N 37°52' E 023°30'0 0.0
2017-Jun-21 16:30N 37°52' E 023°30'0 0.0
2017-Jun-21 16:01N 37°52' E 023°30'0 0.0
2017-Jun-21 15:29N 37°52' E 023°30'0 0.1
2017-Jun-21 14:59N 37°52' E 023°30'0 0.1
2017-Jun-21 13:59N 37°52' E 023°30'0 0.1
2017-Jun-21 13:29N 37°52' E 023°30'0 0.3
2017-Jun-21 12:58N 37°52' E 023°30'0 0.2
2017-Jun-21 12:28N 37°52' E 023°30'0 0.0
2017-Jun-21 11:58N 37°52' E 023°30'0 0.0
2017-Jun-21 11:28N 37°52' E 023°30'0 0.0
2017-Jun-21 10:59N 37°52' E 023°30'0 0.0
2017-Jun-21 10:29N 37°52' E 023°30'0 0.0
2017-Jun-21 09:59N 37°52' E 023°30'0 0.0
2017-Jun-21 09:29N 37°52' E 023°30'0 0.0
2017-Jun-21 08:59N 37°52' E 023°30'0 0.1
2017-Jun-21 08:29N 37°52' E 023°30'0 0.1
2017-Jun-21 07:59N 37°52' E 023°30'0 0.3
2017-Jun-21 07:29N 37°52' E 023°30'0 0.5
2017-Jun-21 06:59N 37°52' E 023°30'0 0.0
2017-Jun-21 06:29N 37°52' E 023°30'0 0.0
2017-Jun-21 05:59N 37°52' E 023°30'0 0.1
2017-Jun-21 05:29N 37°52' E 023°30'0 0.1
2017-Jun-21 04:59N 37°52' E 023°30'0 0.0
2017-Jun-21 04:29N 37°52' E 023°30'0 0.0
2017-Jun-21 03:59N 37°52' E 023°30'0 0.0
2017-Jun-21 03:29N 37°52' E 023°30'0 0.0
2017-Jun-21 02:59N 37°52' E 023°30'0 0.0
2017-Jun-21 02:29N 37°52' E 023°30'0 0.0
2017-Jun-21 01:59N 37°52' E 023°30'0 0.0
2017-Jun-21 01:29N 37°52' E 023°29'0 0.0
2017-Jun-21 00:59N 37°52' E 023°29'0 0.0
2017-Jun-21 00:29N 37°52' E 023°29'0 0.0
2017-Jun-20 23:59N 37°52' E 023°30'0 0.0
2017-Jun-20 23:29N 37°52' E 023°29'0 0.0
2017-Jun-20 22:58N 37°52' E 023°29'0 0.0
2017-Jun-20 22:28N 37°52' E 023°29'0 0.1
2017-Jun-20 22:00N 37°52' E 023°29'0 0.1
2017-Jun-20 21:30N 37°52' E 023°29'0 0.0
2017-Jun-20 21:00N 37°52' E 023°29'0 0.0
2017-Jun-20 20:30N 37°52' E 023°29'0 0.1
2017-Jun-20 20:00N 37°52' E 023°29'0 0.0
2017-Jun-20 19:30N 37°52' E 023°29'0 0.0
2017-Jun-20 19:00N 37°52' E 023°29'0 0.1
2017-Jun-20 18:29N 37°52' E 023°29'0 0.0
2017-Jun-20 17:59N 37°52' E 023°29'0 0.0
2017-Jun-20 17:29N 37°52' E 023°29'0 0.0
2017-Jun-20 16:59N 37°52' E 023°29'0 0.0
2017-Jun-20 16:29N 37°52' E 023°29'0 0.2
2017-Jun-20 15:59N 37°52' E 023°29'0 0.0
2017-Jun-20 15:29N 37°52' E 023°29'0 0.0
2017-Jun-20 14:59N 37°52' E 023°29'0 0.0
2017-Jun-20 14:29N 37°52' E 023°29'0 0.2
2017-Jun-20 13:29N 37°52' E 023°30'0 0.1
2017-Jun-20 12:59N 37°52' E 023°30'0 0.0
2017-Jun-20 12:29N 37°52' E 023°30'0 0.0
2017-Jun-20 11:56N 37°52' E 023°30'0 0.1
2017-Jun-20 11:29N 37°52' E 023°30'0 0.2
2017-Jun-20 10:59N 37°52' E 023°30'0 0.2
2017-Jun-20 10:29N 37°52' E 023°29'0 0.0
2017-Jun-20 10:01N 37°52' E 023°29'0 0.1
2017-Jun-20 09:30N 37°52' E 023°29'0 0.1
2017-Jun-20 09:00N 37°52' E 023°29'0 0.0
2017-Jun-20 08:30N 37°52' E 023°29'0 0.0
2017-Jun-20 08:00N 37°52' E 023°29'0 0.0
2017-Jun-20 07:30N 37°52' E 023°29'0 0.1
2017-Jun-20 07:00N 37°52' E 023°29'0 0.0
2017-Jun-20 06:27N 37°52' E 023°29'0 0.0
2017-Jun-20 06:00N 37°52' E 023°29'0 0.0
2017-Jun-20 05:30N 37°52' E 023°29'0 0.0
2017-Jun-20 05:00N 37°52' E 023°29'0 0.0
2017-Jun-20 04:30N 37°52' E 023°29'0 0.0
2017-Jun-20 03:58N 37°52' E 023°29'0 0.0
2017-Jun-20 03:28N 37°52' E 023°29'0 0.0
2017-Jun-20 02:58N 37°52' E 023°29'0 0.0
2017-Jun-20 02:28N 37°52' E 023°29'0 0.0
2017-Jun-20 01:58N 37°52' E 023°29'0 0.0
2017-Jun-20 01:28N 37°52' E 023°29'0 0.1
2017-Jun-20 00:59N 37°52' E 023°29'0 0.0
2017-Jun-20 00:29N 37°52' E 023°29'0 0.0
2017-Jun-19 23:59N 37°52' E 023°29'0 0.1
2017-Jun-19 23:29N 37°52' E 023°29'0 0.0
2017-Jun-19 22:59N 37°52' E 023°29'0 0.0
2017-Jun-19 22:29N 37°52' E 023°29'0 0.1
2017-Jun-19 21:59N 37°52' E 023°29'0 0.0
2017-Jun-19 21:29N 37°52' E 023°29'0 0.1
2017-Jun-19 20:59N 37°52' E 023°29'0 0.0
2017-Jun-19 20:29N 37°52' E 023°29'0 0.1
2017-Jun-19 19:59N 37°52' E 023°29'0 0.0
2017-Jun-19 19:28N 37°52' E 023°29'0 0.0
2017-Jun-19 18:58N 37°52' E 023°29'0 0.0
2017-Jun-19 18:28N 37°52' E 023°29'0 0.0
2017-Jun-19 17:58N 37°52' E 023°29'0 0.1
2017-Jun-19 17:28N 37°52' E 023°29'0 0.0
2017-Jun-19 16:58N 37°52' E 023°29'0 0.1
2017-Jun-19 16:31N 37°52' E 023°29'0 0.0
2017-Jun-19 16:01N 37°52' E 023°29'0 0.0
2017-Jun-19 15:31N 37°52' E 023°29'0 0.1
2017-Jun-19 15:00N 37°52' E 023°29'0 0.0
2017-Jun-19 14:01N 37°52' E 023°30'0 0.0
2017-Jun-19 13:31N 37°52' E 023°30'0 0.1
2017-Jun-19 12:58N 37°52' E 023°29'0 0.0
2017-Jun-19 12:28N 37°52' E 023°29'0 0.1
2017-Jun-19 11:58N 37°52' E 023°29'0 0.0
2017-Jun-19 11:28N 37°52' E 023°29'0 0.0
2017-Jun-19 10:58N 37°52' E 023°29'0 0.0
2017-Jun-19 10:31N 37°52' E 023°29'0 0.0
2017-Jun-19 10:01N 37°52' E 023°29'0 0.1
2017-Jun-19 09:31N 37°52' E 023°29'0 0.1
2017-Jun-19 09:00N 37°52' E 023°29'0 0.0
2017-Jun-19 08:31N 37°52' E 023°29'0 0.0
2017-Jun-19 08:00N 37°52' E 023°29'0 0.0
2017-Jun-19 07:30N 37°52' E 023°29'0 0.0
2017-Jun-19 07:01N 37°52' E 023°29'0 0.0
2017-Jun-19 06:28N 37°52' E 023°29'0 0.0
2017-Jun-19 05:58N 37°52' E 023°29'0 0.0
2017-Jun-19 05:28N 37°52' E 023°29'0 0.0
2017-Jun-19 04:58N 37°52' E 023°29'0 0.0
2017-Jun-19 04:28N 37°52' E 023°29'0 0.0
2017-Jun-19 03:58N 37°52' E 023°29'0 0.0
2017-Jun-19 03:29N 37°52' E 023°29'0 0.0
2017-Jun-19 02:59N 37°52' E 023°30'0 0.0
2017-Jun-19 02:29N 37°52' E 023°30'0 0.0
2017-Jun-19 01:59N 37°52' E 023°30'0 0.0
2017-Jun-19 01:29N 37°52' E 023°30'0 0.0
2017-Jun-19 00:59N 37°52' E 023°30'0 0.0
2017-Jun-19 00:29N 37°52' E 023°30'0 0.0
2017-Jun-18 23:59N 37°52' E 023°30'0 0.0
2017-Jun-18 23:29N 37°52' E 023°30'0 0.0
2017-Jun-18 22:59N 37°52' E 023°30'0 0.0
2017-Jun-18 22:31N 37°52' E 023°30'0 0.0
2017-Jun-18 22:00N 37°52' E 023°30'0 0.0
2017-Jun-18 21:30N 37°52' E 023°30'0 0.0
2017-Jun-18 21:00N 37°52' E 023°30'0 0.0
2017-Jun-18 20:30N 37°52' E 023°30'0 0.0
2017-Jun-18 20:00N 37°52' E 023°30'0 0.0
2017-Jun-18 19:30N 37°52' E 023°30'0 0.0
2017-Jun-18 19:00N 37°52' E 023°30'0 0.1
2017-Jun-18 18:30N 37°52' E 023°30'0 0.1
2017-Jun-18 18:00N 37°52' E 023°30'0 0.0
2017-Jun-18 17:30N 37°52' E 023°30'0 0.0
2017-Jun-18 17:00N 37°52' E 023°30'0 0.1
2017-Jun-18 16:30N 37°52' E 023°30'0 0.1
2017-Jun-18 16:00N 37°52' E 023°30'0 0.2
2017-Jun-18 15:30N 37°52' E 023°29'0 0.0
2017-Jun-18 15:00N 37°52' E 023°29'0 0.0
2017-Jun-18 14:30N 37°52' E 023°29'0 0.0
2017-Jun-18 14:00N 37°52' E 023°29'0 0.3
2017-Jun-18 13:30N 37°52' E 023°29'2 3.4
2017-Jun-18 13:00N 37°52' E 023°27'3 6.6
2017-Jun-18 12:30N 37°52' E 023°23'4 8.8
2017-Jun-18 12:00N 37°57' E 023°22'2 3.4
2017-Jun-18 11:30N 37°58' E 023°23'0 0.0
2017-Jun-18 10:59N 37°58' E 023°23'0 0.0
2017-Jun-18 10:29N 37°58' E 023°23'0 0.0
2017-Jun-18 10:00N 37°58' E 023°23'0 0.0
2017-Jun-18 09:30N 37°58' E 023°23'0 0.0
2017-Jun-18 08:59N 37°58' E 023°23'0 0.0
2017-Jun-18 08:29N 37°58' E 023°23'0 0.0
2017-Jun-18 08:00N 37°58' E 023°23'0 0.0
2017-Jun-18 07:31N 37°58' E 023°23'0 0.0
2017-Jun-18 07:01N 37°58' E 023°23'0 0.0
2017-Jun-18 06:31N 37°58' E 023°23'0 0.0
2017-Jun-18 06:00N 37°58' E 023°23'0 0.0
2017-Jun-18 05:31N 37°58' E 023°23'0 0.0
2017-Jun-18 05:01N 37°58' E 023°23'0 0.0
2017-Jun-18 04:30N 37°58' E 023°23'0 0.0
2017-Jun-18 04:01N 37°58' E 023°23'0 0.0
2017-Jun-18 03:29N 37°58' E 023°23'0 0.0
2017-Jun-18 02:59N 37°58' E 023°23'0 0.0
2017-Jun-18 02:29N 37°58' E 023°23'0 0.0
2017-Jun-18 02:00N 37°58' E 023°23'0 0.0
2017-Jun-18 01:29N 37°58' E 023°23'0 0.0
2017-Jun-18 00:58N 37°58' E 023°23'0 0.0
2017-Jun-18 00:31N 37°58' E 023°23'0 0.0
2017-Jun-17 23:58N 37°58' E 023°23'0 0.0
2017-Jun-17 23:30N 37°58' E 023°23'0 0.0
2017-Jun-17 23:00N 37°58' E 023°23'0 0.0
2017-Jun-17 22:30N 37°58' E 023°23'0 0.0
2017-Jun-17 22:00N 37°58' E 023°23'0 0.0
2017-Jun-17 21:30N 37°58' E 023°23'0 0.0
2017-Jun-17 21:01N 37°58' E 023°23'0 0.0
2017-Jun-17 20:30N 37°58' E 023°23'0 0.0
2017-Jun-17 19:59N 37°58' E 023°23'0 0.0
2017-Jun-17 19:29N 37°58' E 023°23'0 0.0
2017-Jun-17 18:59N 37°58' E 023°23'0 0.0
2017-Jun-17 18:31N 37°58' E 023°23'0 0.0
2017-Jun-17 17:58N 37°58' E 023°23'0 0.0
2017-Jun-17 17:28N 37°58' E 023°23'0 0.0
2017-Jun-17 16:58N 37°58' E 023°23'0 0.0
2017-Jun-17 16:28N 37°58' E 023°23'0 0.0
2017-Jun-17 15:59N 37°58' E 023°23'0 0.0
2017-Jun-17 15:30N 37°58' E 023°23'0 0.0
2017-Jun-17 15:00N 37°58' E 023°23'0 0.0
2017-Jun-17 14:00N 37°58' E 023°23'0 0.0
2017-Jun-17 13:28N 37°58' E 023°23'0 0.0
2017-Jun-17 12:55N 37°58' E 023°23'0 0.0
2017-Jun-17 12:28N 37°58' E 023°23'0 0.0
2017-Jun-17 11:55N 37°58' E 023°23'0 0.0
2017-Jun-17 11:28N 37°58' E 023°23'0 0.0
2017-Jun-17 10:55N 37°58' E 023°23'0 0.0
2017-Jun-17 10:28N 37°58' E 023°23'0 0.0
2017-Jun-17 09:58N 37°58' E 023°23'0 0.0
2017-Jun-17 09:28N 37°58' E 023°23'0 0.0
2017-Jun-17 08:58N 37°58' E 023°23'0 0.0
2017-Jun-17 08:28N 37°58' E 023°23'0 0.0
2017-Jun-17 07:58N 37°58' E 023°23'0 0.0
2017-Jun-17 07:28N 37°58' E 023°23'0 0.0
2017-Jun-17 07:00N 37°58' E 023°23'1 1.1
2017-Jun-17 06:30N 37°58' E 023°23'2 3.6
2017-Jun-17 06:00N 37°56' E 023°22'0 0.6
2017-Jun-17 05:30N 37°56' E 023°22'0 0.1
2017-Jun-17 05:00N 37°56' E 023°22'0 0.2
2017-Jun-17 04:30N 37°56' E 023°22'0 0.2
2017-Jun-17 04:00N 37°56' E 023°22'0 0.2
2017-Jun-17 03:31N 37°56' E 023°22'0 0.4
2017-Jun-17 03:00N 37°56' E 023°21'0 0.4
2017-Jun-17 02:30N 37°56' E 023°21'0 0.4
2017-Jun-17 02:00N 37°56' E 023°21'2 3.5
2017-Jun-17 01:30N 37°54' E 023°22'2 4.8
2017-Jun-17 01:00N 37°52' E 023°24'4 8.7
2017-Jun-17 00:30N 37°50' E 023°29'5 9.3
2017-Jun-17 00:00N 37°50' E 023°35'4 7.9
2017-Jun-16 23:30N 37°49' E 023°40'5 9.8
2017-Jun-16 23:00N 37°45' E 023°42'611.3
2017-Jun-16 22:31N 37°40' E 023°46'611.9
2017-Jun-16 22:00N 37°34' E 023°48'  
2017-Jun-12 18:37N 37°35' E 023°45'212.4
2017-Jun-12 18:29N 37°36' E 023°44'612.7
2017-Jun-12 18:01N 37°42' E 023°41'612.8
2017-Jun-12 17:31N 37°48' E 023°37'5 9.8
2017-Jun-12 17:00N 37°50' E 023°32'3 6.0
2017-Jun-12 16:31N 37°52' E 023°30'0 0.7
2017-Jun-12 16:01N 37°52' E 023°30'0 0.0
2017-Jun-12 15:31N 37°52' E 023°30'0 0.0
2017-Jun-12 15:01N 37°52' E 023°30'0 0.1
2017-Jun-12 14:29N 37°52' E 023°30'0 0.0
2017-Jun-12 13:28N 37°52' E 023°30'0 0.0
2017-Jun-12 12:58N 37°52' E 023°30'0 0.0
2017-Jun-12 12:28N 37°52' E 023°30'0 0.0
2017-Jun-12 11:58N 37°52' E 023°30'0 0.1
2017-Jun-12 11:31N 37°52' E 023°30'0 0.0
2017-Jun-12 11:01N 37°52' E 023°30'0 0.1
2017-Jun-12 10:31N 37°52' E 023°30'0 0.0
2017-Jun-12 10:01N 37°52' E 023°30'0 0.0
2017-Jun-12 09:31N 37°52' E 023°30'0 0.1
2017-Jun-12 08:49N 37°52' E 023°30'0 0.0
2017-Jun-12 08:31N 37°52' E 023°30'0 0.0
2017-Jun-12 08:01N 37°52' E 023°30'0 0.0
2017-Jun-12 07:31N 37°52' E 023°30'0 0.0
2017-Jun-12 07:01N 37°52' E 023°30'0 0.0
2017-Jun-12 06:30N 37°52' E 023°30'0 0.0
2017-Jun-12 06:00N 37°52' E 023°30'0 0.0
2017-Jun-12 05:30N 37°52' E 023°30'0 0.0
2017-Jun-12 05:00N 37°52' E 023°30'0 0.0
2017-Jun-12 04:30N 37°52' E 023°30'0 0.0
2017-Jun-12 04:00N 37°52' E 023°30'0 0.0
2017-Jun-12 03:30N 37°52' E 023°30'0 0.0
2017-Jun-12 03:00N 37°52' E 023°30'0 0.0
2017-Jun-12 02:31N 37°52' E 023°30'0 0.0
2017-Jun-12 01:59N 37°52' E 023°30'0 0.0
2017-Jun-12 01:29N 37°52' E 023°30'0 0.1
2017-Jun-12 00:59N 37°52' E 023°30'0 0.0
2017-Jun-12 00:29N 37°52' E 023°30'0 0.0
2017-Jun-11 23:59N 37°52' E 023°30'0 0.1
2017-Jun-11 23:31N 37°52' E 023°30'0 0.0
2017-Jun-11 22:58N 37°52' E 023°30'0 0.1
2017-Jun-11 22:28N 37°52' E 023°30'0 0.1
2017-Jun-11 21:58N 37°52' E 023°30'0 0.1
2017-Jun-11 21:28N 37°52' E 023°30'  

Dump ship's entire track history